HTDA/DAR METAR and TAF weather

Enter ICAO airport designator
Station Type Date Time Source
HTDA METAR 2019/09/20 20:00 UTC NOAA

HTDA 202000Z 12004KT 9999 FEW014 24/22 Q1015 NOSIG


Station Type Date Time Source
HTDA Decoded METAR 2019/09/20 20:00 UTC NOAA

Dar Es Salaam Airport, Tanzania (HTDA) 06-52S 039-12E 55M
Sep 20, 2019 - 04:00 PM EDT / 2019.09.20 2000 UTC
Wind: from the ESE (120 degrees) at 5 MPH (4 KT):0
Visibility: greater than 7 mile(s):0
Sky conditions: mostly clear
Temperature: 75 F (24 C)
Dew Point: 71 F (22 C)
Relative Humidity: 88%
Pressure (altimeter): 29.97 in. Hg (1015 hPa)
ob: HTDA 202000Z 12004KT 9999 FEW014 24/22 Q1015 NOSIG
cycle: 20

Station Type Date Time Source
HTDA TAF 2019/09/20 18:21 UTC NOAA

TAF TAF HTDA 201700Z 2018/2124 12010KT 9999 SCT015
TEMPO 2103/2105 5000 MIFG
BECMG 2106/2110 BKN025

Example: see airport list